createdAt,value
2022-11-22T00:02:49.770Z,1.20
2022-11-22T00:05:51.561Z,1.30
2022-11-22T00:08:53.295Z,1.30
2022-11-22T00:11:55.030Z,1.10
2022-11-22T00:14:57.200Z,1.20
2022-11-22T00:17:59.152Z,1.10
2022-11-22T00:21:07.853Z,1.60
2022-11-22T00:24:12.026Z,1.10
2022-11-22T00:27:13.874Z,1.60
2022-11-22T00:30:15.959Z,1.60
2022-11-22T00:33:17.788Z,1.40
2022-11-22T00:36:19.554Z,1.70
2022-11-22T00:39:21.336Z,1.30
2022-11-22T00:42:23.122Z,1.30
2022-11-22T00:45:24.890Z,1.60
2022-11-22T00:48:26.857Z,1.10
2022-11-22T00:51:28.665Z,1.70
2022-11-22T00:54:30.447Z,1.40
2022-11-22T00:57:32.207Z,1.40
2022-11-22T01:00:34.034Z,1.40
2022-11-22T01:03:36.353Z,1.70
2022-11-22T01:06:38.134Z,1.50
2022-11-22T01:09:40.065Z,1.90
2022-11-22T01:12:41.832Z,1.50
2022-11-22T01:15:43.630Z,1.30
2022-11-22T01:18:45.804Z,1.80
2022-11-22T01:21:47.581Z,1.30
2022-11-22T01:24:49.345Z,1.30
2022-11-22T01:27:51.111Z,1.40
2022-11-22T01:30:55.969Z,1.30
2022-11-22T01:33:59.224Z,1.60
2022-11-22T01:37:01.041Z,1.30
2022-11-22T01:40:02.946Z,1.30
2022-11-22T01:43:21.746Z,1.40
2022-11-22T01:46:32.041Z,1.30
2022-11-22T01:49:41.434Z,1.30
2022-11-22T01:52:43.196Z,1.30
2022-11-22T01:55:45.483Z,1.00
2022-11-22T01:58:50.893Z,1.10
2022-11-22T02:01:54.094Z,1.10
2022-11-22T02:04:58.377Z,1.00
2022-11-22T02:08:08.712Z,1.10
2022-11-22T02:11:12.471Z,1.40
2022-11-22T02:14:16.916Z,1.30
2022-11-22T02:17:18.644Z,1.40
2022-11-22T02:20:20.405Z,1.40
2022-11-22T02:23:46.772Z,1.90
2022-11-22T02:26:48.660Z,1.70
2022-11-22T02:29:50.401Z,1.70
2022-11-22T02:32:55.140Z,1.70
2022-11-22T02:35:57.317Z,2.30
2022-11-22T02:38:59.232Z,1.90
2022-11-22T02:42:01.514Z,1.80
2022-11-22T02:45:03.349Z,1.90
2022-11-22T02:48:10.583Z,1.90
2022-11-22T02:51:17.013Z,2.20
2022-11-22T02:54:19.733Z,1.70
2022-11-22T02:57:21.521Z,1.70
2022-11-22T03:00:23.671Z,1.70
2022-11-22T03:03:25.437Z,1.70
2022-11-22T03:06:27.262Z,2.10
2022-11-22T03:09:29.517Z,1.90
2022-11-22T03:12:31.501Z,1.80
2022-11-22T03:15:33.293Z,1.90
2022-11-22T03:18:36.436Z,1.80
2022-11-22T03:21:39.510Z,1.80
2022-11-22T03:24:41.349Z,2.20
2022-11-22T03:27:43.139Z,2.00
2022-11-22T03:30:44.957Z,1.70
2022-11-22T03:33:46.890Z,1.80
2022-11-22T03:36:48.904Z,2.20
2022-11-22T03:39:53.319Z,2.10
2022-11-22T03:42:55.057Z,2.30
2022-11-22T03:45:56.837Z,2.20
2022-11-22T03:48:58.657Z,1.90
2022-11-22T03:52:00.592Z,2.30
2022-11-22T03:55:02.708Z,2.10
2022-11-22T03:58:04.724Z,2.40
2022-11-22T04:01:06.603Z,1.90
2022-11-22T04:04:08.292Z,1.90
2022-11-22T04:07:10.119Z,1.90
2022-11-22T04:10:11.907Z,1.90
2022-11-22T04:13:13.647Z,2.30
2022-11-22T04:16:15.660Z,1.90
2022-11-22T04:19:17.527Z,2.00
2022-11-22T04:22:19.265Z,2.00
2022-11-22T04:25:21.076Z,2.00
2022-11-22T04:29:08.021Z,2.10
2022-11-22T04:32:06.875Z,2.30
2022-11-22T04:35:08.856Z,2.00
2022-11-22T04:38:11.164Z,2.10
2022-11-22T04:41:12.954Z,2.40
2022-11-22T04:44:32.992Z,2.20
2022-11-22T04:47:53.433Z,2.50
2022-11-22T04:51:13.604Z,2.30
2022-11-22T04:54:15.374Z,2.30
2022-11-22T04:57:18.716Z,2.30
2022-11-22T05:00:20.564Z,2.70
2022-11-22T05:03:22.487Z,2.30
2022-11-22T05:06:24.273Z,2.40
2022-11-22T05:09:26.025Z,2.40
2022-11-22T05:12:27.788Z,2.30
2022-11-22T05:15:29.689Z,2.30
2022-11-22T05:18:32.232Z,2.70
2022-11-22T05:21:35.803Z,2.20
2022-11-22T05:24:37.511Z,2.90
2022-11-22T05:27:39.519Z,2.30
2022-11-22T05:30:41.843Z,2.30
2022-11-22T05:33:45.573Z,2.80
2022-11-22T05:36:47.283Z,2.30
2022-11-22T05:40:15.442Z,2.40
2022-11-22T05:43:17.146Z,2.40
2022-11-22T05:46:24.689Z,2.70
2022-11-22T05:49:27.311Z,2.40
2022-11-22T05:52:29.170Z,2.40
2022-11-22T05:55:31.067Z,2.40
2022-11-22T05:58:33.261Z,2.40
2022-11-22T06:01:35.001Z,2.50
2022-11-22T06:04:36.881Z,2.40
2022-11-22T06:07:38.720Z,2.90
2022-11-22T06:10:40.493Z,2.70
2022-11-22T06:13:44.399Z,2.70
2022-11-22T06:16:46.184Z,2.40
2022-11-22T06:19:47.925Z,2.70
2022-11-22T06:22:49.633Z,2.90
2022-11-22T06:26:03.211Z,2.70
2022-11-22T06:29:05.686Z,2.60
2022-11-22T06:32:07.482Z,2.60
2022-11-22T06:35:09.430Z,2.60
2022-11-22T06:38:11.161Z,2.70
2022-11-22T06:41:17.294Z,2.60
2022-11-22T06:44:19.069Z,2.90
2022-11-22T06:47:20.778Z,2.50
2022-11-22T06:50:22.622Z,2.60
2022-11-22T06:53:45.659Z,2.70
2022-11-22T06:56:46.216Z,2.90
2022-11-22T06:59:48.000Z,2.80
2022-11-22T07:02:49.739Z,3.00
2022-11-22T07:05:55.493Z,2.80
2022-11-22T07:08:58.580Z,3.00
2022-11-22T07:12:00.324Z,2.70
2022-11-22T07:15:02.128Z,2.80
2022-11-22T07:18:04.018Z,2.90
2022-11-22T07:21:12.760Z,2.90
2022-11-22T07:24:15.653Z,2.80
2022-11-22T07:27:17.461Z,2.80
2022-11-22T07:30:19.262Z,2.80
2022-11-22T07:33:21.005Z,3.10
2022-11-22T07:36:23.214Z,2.90
2022-11-22T07:39:24.975Z,3.00
2022-11-22T07:42:26.737Z,3.50
2022-11-22T07:45:29.531Z,3.20
2022-11-22T07:48:32.776Z,3.00
2022-11-22T07:51:34.641Z,3.30
2022-11-22T07:54:36.373Z,3.00
2022-11-22T07:57:38.315Z,3.50
2022-11-22T08:00:40.341Z,3.30
2022-11-22T08:03:42.918Z,3.50
2022-11-22T08:06:44.667Z,3.30
2022-11-22T08:09:46.493Z,3.50
2022-11-22T08:12:48.451Z,3.60
2022-11-22T08:15:52.412Z,3.40
2022-11-22T08:19:01.401Z,3.40
2022-11-22T08:22:03.247Z,3.40
2022-11-22T08:25:07.889Z,3.50
2022-11-22T08:28:09.689Z,3.60
2022-11-22T08:31:14.390Z,3.70
2022-11-22T08:34:16.170Z,3.60
2022-11-22T08:37:18.027Z,3.60
2022-11-22T08:40:19.811Z,3.80
2022-11-22T08:43:23.308Z,3.70
2022-11-22T08:46:25.262Z,3.80
2022-11-22T08:49:27.131Z,3.80
2022-11-22T08:52:28.969Z,3.90
2022-11-22T08:55:30.693Z,3.90
2022-11-22T08:58:33.906Z,4.00
2022-11-22T09:09:43.381Z,4.20
2022-11-22T09:12:30.940Z,4.20
2022-11-22T09:15:32.816Z,4.30
2022-11-22T09:18:34.770Z,4.40
2022-11-22T09:21:37.581Z,4.50
2022-11-22T09:24:39.299Z,4.40
2022-11-22T09:27:41.006Z,4.40
2022-11-22T09:30:42.664Z,4.40
2022-11-22T09:33:47.183Z,4.60
2022-11-22T09:41:17.231Z,4.70
2022-11-22T09:45:10.301Z,4.80
2022-11-22T09:48:38.063Z,4.90
2022-11-22T09:51:49.729Z,4.90
2022-11-22T09:54:57.418Z,4.90
2022-11-22T09:58:29.108Z,4.90
2022-11-22T10:01:50.459Z,5.00
2022-11-22T10:04:57.688Z,5.00
2022-11-22T10:08:17.631Z,5.10
2022-11-22T10:11:30.959Z,5.10
2022-11-22T10:15:14.252Z,5.10
2022-11-22T10:18:37.900Z,5.20
2022-11-22T10:21:39.580Z,5.20
2022-11-22T10:24:42.814Z,5.10
2022-11-22T10:27:53.026Z,5.10
2022-11-22T10:31:09.155Z,5.20
2022-11-22T10:34:34.849Z,5.30
2022-11-22T10:38:13.933Z,5.30
2022-11-22T10:46:11.000Z,5.40
2022-11-22T10:49:29.074Z,5.50
2022-11-22T10:52:44.239Z,5.50
2022-11-22T10:55:50.245Z,5.60
2022-11-22T11:03:47.867Z,5.60
2022-11-22T11:10:30.868Z,5.70
2022-11-22T11:16:40.825Z,5.80
2022-11-22T11:19:45.591Z,5.90
2022-11-22T11:26:37.785Z,6.10
2022-11-22T11:30:03.554Z,6.10
2022-11-22T11:33:24.167Z,6.10
2022-11-22T11:36:40.403Z,6.10
2022-11-22T11:39:46.466Z,6.20
2022-11-22T11:42:48.228Z,6.10
2022-11-22T11:45:50.709Z,6.10
2022-11-22T11:49:08.560Z,6.10
2022-11-22T11:52:29.847Z,6.10
2022-11-22T11:55:35.781Z,6.10
2022-11-22T11:58:37.648Z,6.00
2022-11-22T12:01:47.645Z,5.90
2022-11-22T12:04:59.565Z,5.90
2022-11-22T12:08:01.868Z,6.00
2022-11-22T12:11:10.010Z,6.00
2022-11-22T12:14:21.036Z,6.00
2022-11-22T12:17:31.250Z,6.10
2022-11-22T12:20:55.436Z,6.10
2022-11-22T12:27:45.561Z,6.10
2022-11-22T12:30:52.847Z,6.20
2022-11-22T12:34:20.468Z,6.20
2022-11-22T12:37:31.405Z,6.30
2022-11-22T12:40:41.418Z,6.30
2022-11-22T12:44:12.011Z,6.30
2022-11-22T12:47:20.493Z,6.30
2022-11-22T12:50:41.642Z,6.30
2022-11-22T12:53:46.711Z,6.40
2022-11-22T12:57:38.560Z,6.40
2022-11-22T13:01:08.691Z,6.40
2022-11-22T13:04:10.457Z,6.40
2022-11-22T13:07:18.954Z,6.40
2022-11-22T13:10:42.150Z,6.40
2022-11-22T13:13:50.710Z,6.30
2022-11-22T13:16:53.900Z,6.30
2022-11-22T13:20:17.116Z,6.30
2022-11-22T13:24:10.700Z,6.30
2022-11-22T13:27:19.121Z,6.30
2022-11-22T13:30:26.486Z,6.30
2022-11-22T13:33:28.257Z,6.30
2022-11-22T13:36:32.305Z,6.30
2022-11-22T13:39:41.043Z,6.30
2022-11-22T13:42:43.468Z,6.30
2022-11-22T13:45:53.401Z,6.20
2022-11-22T13:48:55.106Z,6.20
2022-11-22T13:51:58.983Z,6.20
2022-11-22T13:55:22.195Z,6.20
2022-11-22T13:58:26.929Z,6.20
2022-11-22T14:01:52.218Z,6.20
2022-11-22T14:05:27.217Z,6.10
2022-11-22T14:08:36.173Z,6.10
2022-11-22T14:11:54.615Z,6.10
2022-11-22T14:15:11.505Z,6.10
2022-11-22T14:18:21.889Z,6.10
2022-11-22T14:22:02.780Z,6.20
2022-11-22T14:25:26.223Z,6.10
2022-11-22T14:28:36.973Z,6.10
2022-11-22T14:31:39.642Z,6.10
2022-11-22T14:35:03.320Z,6.10
2022-11-22T14:38:29.056Z,6.10
2022-11-22T14:41:45.729Z,6.10
2022-11-22T14:44:51.652Z,6.10
2022-11-22T14:47:53.330Z,6.10
2022-11-22T14:51:04.287Z,6.10
2022-11-22T14:54:23.505Z,6.10
2022-11-22T14:57:28.246Z,6.10
2022-11-22T15:00:52.478Z,6.10
2022-11-22T15:09:13.088Z,6.10
2022-11-22T15:09:14.154Z,6.10
2022-11-22T15:11:35.815Z,6.10
2022-11-22T16:00:43.425Z,5.90
2022-11-22T16:03:50.994Z,5.90
2022-11-22T16:06:52.871Z,5.90
2022-11-22T16:09:54.636Z,5.90
2022-11-22T16:12:56.313Z,5.80
2022-11-22T16:16:12.196Z,5.90
2022-11-22T16:19:22.496Z,5.90
2022-11-22T16:22:32.150Z,5.90
2022-11-22T16:25:36.190Z,5.90
2022-11-22T16:28:38.273Z,5.90
2022-11-22T16:31:40.487Z,5.90
2022-11-22T16:34:43.614Z,5.90
2022-11-22T16:37:48.085Z,5.90
2022-11-22T16:40:50.800Z,5.90
2022-11-22T16:43:55.378Z,5.80
2022-11-22T16:46:57.182Z,5.80
2022-11-22T16:49:59.015Z,5.90
2022-11-22T16:53:02.810Z,5.80
2022-11-22T16:56:05.054Z,5.80
2022-11-22T16:59:12.735Z,5.70
2022-11-22T17:02:17.518Z,5.70
2022-11-22T17:05:19.284Z,5.70
2022-11-22T17:08:20.993Z,5.70
2022-11-22T17:11:29.318Z,5.70
2022-11-22T17:14:31.367Z,5.60
2022-11-22T17:17:33.384Z,5.60
2022-11-22T17:20:35.936Z,5.50
2022-11-22T17:23:38.923Z,5.60
2022-11-22T17:26:40.723Z,5.60
2022-11-22T17:29:51.137Z,5.60
2022-11-22T17:32:53.207Z,5.60
2022-11-22T17:35:55.831Z,5.60
2022-11-22T17:38:59.648Z,5.60
2022-11-22T17:42:01.425Z,5.70
2022-11-22T17:45:03.356Z,5.70
2022-11-22T17:48:05.657Z,5.70
2022-11-22T17:51:09.324Z,5.70
2022-11-22T17:54:11.066Z,5.80
2022-11-22T17:57:13.472Z,5.80
2022-11-22T18:00:15.729Z,5.80
2022-11-22T18:03:17.520Z,5.80
2022-11-22T18:06:23.034Z,5.80
2022-11-22T18:09:24.838Z,5.80
2022-11-22T18:12:27.322Z,5.80
2022-11-22T18:15:29.121Z,5.80
2022-11-22T18:21:53.987Z,5.80
2022-11-22T18:24:55.757Z,5.90
2022-11-22T18:27:57.498Z,5.80
2022-11-22T18:30:59.258Z,5.80
2022-11-22T18:34:00.942Z,5.80
2022-11-22T18:40:28.167Z,5.90
2022-11-22T18:43:30.122Z,5.90
2022-11-22T18:46:32.453Z,5.90
2022-11-22T18:49:37.255Z,5.90
2022-11-22T18:52:39.346Z,5.80
2022-11-22T18:55:41.452Z,5.90
2022-11-22T18:58:44.032Z,5.90
2022-11-22T19:01:45.896Z,5.80
2022-11-22T19:04:49.478Z,5.80
2022-11-22T19:07:51.231Z,5.80
2022-11-22T19:10:57.039Z,5.80
2022-11-22T19:13:59.369Z,5.80
2022-11-22T19:17:01.107Z,5.80
2022-11-22T19:20:04.206Z,5.80
2022-11-22T19:23:05.843Z,5.80
2022-11-22T19:26:14.188Z,5.80
2022-11-22T19:29:16.284Z,5.70
2022-11-22T19:32:17.983Z,5.70
2022-11-22T19:35:19.653Z,5.70
2022-11-22T19:38:21.323Z,5.70
2022-11-22T19:41:24.385Z,5.60
2022-11-22T19:44:26.057Z,5.70
2022-11-22T19:47:27.826Z,5.70
2022-11-22T19:50:29.504Z,5.60
2022-11-22T19:53:31.438Z,5.70
2022-11-22T19:56:38.062Z,5.60
2022-11-22T19:59:40.029Z,5.60
2022-11-22T20:02:42.071Z,5.60
2022-11-22T20:05:43.784Z,5.70
2022-11-22T20:08:45.519Z,5.70
2022-11-22T20:11:47.252Z,5.70
2022-11-22T20:14:49.332Z,5.80
2022-11-22T20:17:50.927Z,5.90
2022-11-22T20:20:59.026Z,5.90
2022-11-22T20:24:01.025Z,5.90
2022-11-22T20:27:02.834Z,5.90
2022-11-22T20:30:05.261Z,5.90
2022-11-22T20:33:06.961Z,5.90
2022-11-22T20:36:20.504Z,5.90
2022-11-22T20:39:22.120Z,5.80
2022-11-22T20:42:34.141Z,5.90
2022-11-22T20:45:36.623Z,5.90
2022-11-22T20:48:40.279Z,5.80
2022-11-22T20:51:42.998Z,5.90
2022-11-22T20:54:44.622Z,5.90
2022-11-22T20:57:46.243Z,5.90
2022-11-22T21:00:48.309Z,5.90
2022-11-22T21:03:50.331Z,6.00
2022-11-22T21:06:53.636Z,6.00
2022-11-22T21:09:55.259Z,6.00
2022-11-22T21:12:56.911Z,6.00
2022-11-22T21:16:08.777Z,6.00
2022-11-22T21:19:22.960Z,6.00
2022-11-22T21:22:31.667Z,6.10
2022-11-22T21:25:33.779Z,6.10
2022-11-22T21:28:39.860Z,6.10
2022-11-22T21:31:41.561Z,6.10
2022-11-22T21:34:43.353Z,6.10
2022-11-22T21:37:45.031Z,6.10
2022-11-22T21:41:10.892Z,6.10
2022-11-22T21:44:19.947Z,6.10
2022-11-22T21:47:23.317Z,6.10
2022-11-22T21:50:28.035Z,6.10
2022-11-22T21:53:30.249Z,6.10
2022-11-22T21:56:31.971Z,6.10
2022-11-22T21:59:34.099Z,6.10
2022-11-22T22:02:35.860Z,6.10
2022-11-22T22:05:37.672Z,6.10
2022-11-22T22:08:40.659Z,6.10
2022-11-22T22:11:47.691Z,6.10
2022-11-22T22:14:49.339Z,6.10
2022-11-22T22:17:54.540Z,6.10
2022-11-22T22:21:16.459Z,6.10
2022-11-22T22:24:18.180Z,6.10
2022-11-22T22:27:19.815Z,6.10
2022-11-22T22:30:23.034Z,6.10
2022-11-22T22:33:24.632Z,6.10
2022-11-22T22:36:27.486Z,6.10
2022-11-22T22:39:29.310Z,6.20
2022-11-22T22:42:34.188Z,6.10
2022-11-22T22:45:36.165Z,6.10
2022-11-22T22:48:38.432Z,6.20
2022-11-22T22:51:40.045Z,6.20
2022-11-22T22:54:41.637Z,6.20
2022-11-22T22:57:43.238Z,6.20
2022-11-22T23:00:44.838Z,6.20
2022-11-22T23:03:54.465Z,6.20
2022-11-22T23:06:56.094Z,6.20
2022-11-22T23:09:57.736Z,6.20
2022-11-22T23:12:59.590Z,6.30
2022-11-22T23:16:05.989Z,6.20
2022-11-22T23:19:08.430Z,6.20
2022-11-22T23:22:10.080Z,6.20
2022-11-22T23:25:11.784Z,6.20
2022-11-22T23:28:13.389Z,6.30
2022-11-22T23:31:15.990Z,6.20
2022-11-22T23:34:17.605Z,6.30
2022-11-22T23:37:19.219Z,6.30
2022-11-22T23:40:20.892Z,6.30
2022-11-22T23:43:22.550Z,6.30
2022-11-22T23:46:27.418Z,6.20
2022-11-22T23:49:29.299Z,6.20
2022-11-22T23:52:31.085Z,6.20
2022-11-22T23:55:32.733Z,6.20
2022-11-22T23:58:35.226Z,6.10
